sensor_id;sensor_type;location;lat;lon;timestamp;pressure;altitude;pressure_sealevel;temperature;humidity
11672;BME280;5892;43.412;24.612;2023-04-06T00:02:08;99759.41;;;3.96;89.79
11672;BME280;5892;43.412;24.612;2023-04-06T00:04:35;99784.19;;;4.23;89.10
11672;BME280;5892;43.412;24.612;2023-04-06T00:07:02;99774.75;;;4.10;89.09
11672;BME280;5892;43.412;24.612;2023-04-06T00:09:32;99781.47;;;4.23;89.03
11672;BME280;5892;43.412;24.612;2023-04-06T00:11:59;99782.78;;;4.25;89.29
11672;BME280;5892;43.412;24.612;2023-04-06T00:14:26;99778.19;;;4.26;88.34
11672;BME280;5892;43.412;24.612;2023-04-06T00:16:53;99775.66;;;4.35;88.83
11672;BME280;5892;43.412;24.612;2023-04-06T00:19:21;99758.16;;;4.22;88.88
11672;BME280;5892;43.412;24.612;2023-04-06T00:21:48;99715.28;;;3.85;88.96
11672;BME280;5892;43.412;24.612;2023-04-06T00:24:16;99778.69;;;4.33;89.37
11672;BME280;5892;43.412;24.612;2023-04-06T00:26:43;99767.78;;;4.38;88.71
11672;BME280;5892;43.412;24.612;2023-04-06T00:29:19;99766.66;;;4.44;88.75
11672;BME280;5892;43.412;24.612;2023-04-06T00:31:46;99747.19;;;4.37;88.00
11672;BME280;5892;43.412;24.612;2023-04-06T00:34:13;99766.09;;;4.47;87.57
11672;BME280;5892;43.412;24.612;2023-04-06T00:36:42;99760.09;;;4.50;87.98
11672;BME280;5892;43.412;24.612;2023-04-06T00:39:10;99695.31;;;4.10;87.40
11672;BME280;5892;43.412;24.612;2023-04-06T00:41:36;99745.56;;;4.36;86.92
11672;BME280;5892;43.412;24.612;2023-04-06T00:44:06;99759.03;;;4.46;86.92
11672;BME280;5892;43.412;24.612;2023-04-06T00:46:35;99669.19;;;3.90;87.39
11672;BME280;5892;43.412;24.612;2023-04-06T00:49:19;99753.91;;;4.45;87.64
11672;BME280;5892;43.412;24.612;2023-04-06T00:51:48;99755.00;;;4.44;87.81
11672;BME280;5892;43.412;24.612;2023-04-06T00:54:17;99750.66;;;4.43;87.57
11672;BME280;5892;43.412;24.612;2023-04-06T00:56:55;99757.22;;;4.37;88.25
11672;BME280;5892;43.412;24.612;2023-04-06T00:59:22;99744.97;;;4.44;88.78
11672;BME280;5892;43.412;24.612;2023-04-06T01:01:49;99746.00;;;4.48;88.38
11672;BME280;5892;43.412;24.612;2023-04-06T01:04:16;99589.72;;;3.17;87.59
11672;BME280;5892;43.412;24.612;2023-04-06T01:06:43;99742.53;;;4.43;88.00
11672;BME280;5892;43.412;24.612;2023-04-06T01:09:12;99752.56;;;4.42;88.18
11672;BME280;5892;43.412;24.612;2023-04-06T01:11:39;99740.09;;;4.41;88.18
11672;BME280;5892;43.412;24.612;2023-04-06T01:14:06;99741.41;;;4.49;88.07
11672;BME280;5892;43.412;24.612;2023-04-06T01:16:34;99739.06;;;4.37;87.58
11672;BME280;5892;43.412;24.612;2023-04-06T01:19:15;99728.94;;;4.48;87.84
11672;BME280;5892;43.412;24.612;2023-04-06T01:21:42;99677.47;;;4.04;87.83
11672;BME280;5892;43.412;24.612;2023-04-06T01:24:12;99713.63;;;4.28;87.82
11672;BME280;5892;43.412;24.612;2023-04-06T01:26:39;99725.25;;;4.34;88.18
11672;BME280;5892;43.412;24.612;2023-04-06T01:29:06;99673.16;;;4.03;88.14
11672;BME280;5892;43.412;24.612;2023-04-06T01:31:33;99671.13;;;3.84;88.98
11672;BME280;5892;43.412;24.612;2023-04-06T01:33:59;99719.78;;;4.39;88.71
11672;BME280;5892;43.412;24.612;2023-04-06T01:36:26;99722.22;;;4.35;89.22
11672;BME280;5892;43.412;24.612;2023-04-06T01:38:53;99682.78;;;4.19;89.26
11672;BME280;5892;43.412;24.612;2023-04-06T01:41:22;99709.44;;;4.41;88.09
11672;BME280;5892;43.412;24.612;2023-04-06T01:43:50;99647.94;;;4.02;89.07
11672;BME280;5892;43.412;24.612;2023-04-06T01:46:19;99718.94;;;4.43;89.40
11672;BME280;5892;43.412;24.612;2023-04-06T01:48:46;99711.03;;;4.47;88.90
11672;BME280;5892;43.412;24.612;2023-04-06T01:51:15;99688.09;;;4.34;89.89
11672;BME280;5892;43.412;24.612;2023-04-06T01:53:46;99697.28;;;4.38;90.28
11672;BME280;5892;43.412;24.612;2023-04-06T01:56:13;99661.03;;;4.24;90.47
11672;BME280;5892;43.412;24.612;2023-04-06T01:58:42;99697.13;;;4.53;88.96
11672;BME280;5892;43.412;24.612;2023-04-06T02:01:09;99661.34;;;4.22;88.85
11672;BME280;5892;43.412;24.612;2023-04-06T02:03:36;99693.84;;;4.56;88.86
11672;BME280;5892;43.412;24.612;2023-04-06T02:06:03;99692.22;;;4.55;89.52
11672;BME280;5892;43.412;24.612;2023-04-06T02:08:30;99652.78;;;4.39;89.20
11672;BME280;5892;43.412;24.612;2023-04-06T02:10:57;99679.50;;;4.51;89.39
11672;BME280;5892;43.412;24.612;2023-04-06T02:13:24;99636.06;;;3.93;89.20
11672;BME280;5892;43.412;24.612;2023-04-06T02:16:03;99642.41;;;4.17;89.26
11672;BME280;5892;43.412;24.612;2023-04-06T02:18:31;99611.31;;;4.05;89.23
11672;BME280;5892;43.412;24.612;2023-04-06T02:20:58;99679.81;;;4.49;88.49
11672;BME280;5892;43.412;24.612;2023-04-06T02:23:25;99680.31;;;4.51;89.06
11672;BME280;5892;43.412;24.612;2023-04-06T02:25:52;99640.09;;;4.30;88.57
11672;BME280;5892;43.412;24.612;2023-04-06T02:28:31;99645.84;;;4.28;88.50
11672;BME280;5892;43.412;24.612;2023-04-06T02:30:58;99673.63;;;4.44;88.69
11672;BME280;5892;43.412;24.612;2023-04-06T02:33:29;99637.69;;;4.28;88.65
11672;BME280;5892;43.412;24.612;2023-04-06T02:35:56;99679.88;;;4.44;87.94
11672;BME280;5892;43.412;24.612;2023-04-06T02:38:24;99667.94;;;4.40;88.52
11672;BME280;5892;43.412;24.612;2023-04-06T02:40:50;99673.38;;;4.40;88.93
11672;BME280;5892;43.412;24.612;2023-04-06T02:43:18;99525.66;;;3.41;89.09
11672;BME280;5892;43.412;24.612;2023-04-06T02:45:46;99669.38;;;4.33;89.31
11672;BME280;5892;43.412;24.612;2023-04-06T02:48:13;99621.06;;;4.06;89.49
11672;BME280;5892;43.412;24.612;2023-04-06T02:50:41;99600.00;;;3.98;90.16
11672;BME280;5892;43.412;24.612;2023-04-06T02:53:08;99694.47;;;4.48;89.31
11672;BME280;5892;43.412;24.612;2023-04-06T02:55:35;99714.34;;;4.39;89.81
11672;BME280;5892;43.412;24.612;2023-04-06T02:58:02;99683.91;;;4.47;89.87
11672;BME280;5892;43.412;24.612;2023-04-06T03:00:29;99660.97;;;4.34;89.69
11672;BME280;5892;43.412;24.612;2023-04-06T03:02:56;99688.03;;;4.39;89.72
11672;BME280;5892;43.412;24.612;2023-04-06T03:05:24;99665.38;;;4.25;90.41
11672;BME280;5892;43.412;24.612;2023-04-06T03:07:52;99675.72;;;4.23;90.61
11672;BME280;5892;43.412;24.612;2023-04-06T03:10:29;99675.84;;;4.37;91.53
11672;BME280;5892;43.412;24.612;2023-04-06T03:12:56;99689.22;;;4.28;91.41
11672;BME280;5892;43.412;24.612;2023-04-06T03:15:23;99677.28;;;4.29;91.83
11672;BME280;5892;43.412;24.612;2023-04-06T03:17:50;99653.66;;;4.01;91.96
11672;BME280;5892;43.412;24.612;2023-04-06T03:20:17;99687.66;;;4.22;92.23
11672;BME280;5892;43.412;24.612;2023-04-06T03:22:44;99685.44;;;4.24;92.08
11672;BME280;5892;43.412;24.612;2023-04-06T03:25:13;99675.16;;;4.21;93.04
11672;BME280;5892;43.412;24.612;2023-04-06T03:27:40;99672.72;;;4.19;93.09
11672;BME280;5892;43.412;24.612;2023-04-06T03:30:08;99622.81;;;3.92;93.06
11672;BME280;5892;43.412;24.612;2023-04-06T03:32:36;99670.31;;;4.18;92.33
11672;BME280;5892;43.412;24.612;2023-04-06T03:35:03;99682.19;;;4.27;92.90
11672;BME280;5892;43.412;24.612;2023-04-06T03:37:30;99675.50;;;4.14;92.94
11672;BME280;5892;43.412;24.612;2023-04-06T03:39:57;99686.03;;;4.21;93.23
11672;BME280;5892;43.412;24.612;2023-04-06T03:42:25;99586.00;;;3.52;93.23
11672;BME280;5892;43.412;24.612;2023-04-06T03:44:53;99620.44;;;3.85;93.72
11672;BME280;5892;43.412;24.612;2023-04-06T03:47:20;99687.31;;;4.29;93.49
11672;BME280;5892;43.412;24.612;2023-04-06T03:49:47;99590.13;;;3.44;93.33
11672;BME280;5892;43.412;24.612;2023-04-06T03:52:14;99561.56;;;3.57;93.26
11672;BME280;5892;43.412;24.612;2023-04-06T03:54:41;99679.69;;;4.31;93.06
11672;BME280;5892;43.412;24.612;2023-04-06T03:57:08;99690.53;;;4.31;93.33
11672;BME280;5892;43.412;24.612;2023-04-06T03:59:36;99686.50;;;4.28;93.62
11672;BME280;5892;43.412;24.612;2023-04-06T04:02:03;99687.31;;;4.29;94.41
11672;BME280;5892;43.412;24.612;2023-04-06T04:04:30;99611.25;;;3.81;93.52
11672;BME280;5892;43.412;24.612;2023-04-06T04:06:57;99668.69;;;4.17;92.58
11672;BME280;5892;43.412;24.612;2023-04-06T04:09:24;99604.53;;;3.73;93.26
11672;BME280;5892;43.412;24.612;2023-04-06T04:11:51;99689.41;;;4.37;92.74
11672;BME280;5892;43.412;24.612;2023-04-06T04:14:21;99683.75;;;4.33;92.26
11672;BME280;5892;43.412;24.612;2023-04-06T04:16:51;99690.53;;;4.31;92.30
11672;BME280;5892;43.412;24.612;2023-04-06T04:19:18;99693.22;;;4.36;91.91
11672;BME280;5892;43.412;24.612;2023-04-06T04:21:46;99691.91;;;4.33;91.89
11672;BME280;5892;43.412;24.612;2023-04-06T04:24:49;99553.47;;;3.18;91.72
11672;BME280;5892;43.412;24.612;2023-04-06T04:27:16;99677.31;;;4.24;91.22
11672;BME280;5892;43.412;24.612;2023-04-06T04:29:43;99698.34;;;4.37;90.46
11672;BME280;5892;43.412;24.612;2023-04-06T04:32:11;99552.13;;;3.54;90.72
11672;BME280;5892;43.412;24.612;2023-04-06T04:34:38;99689.09;;;4.43;91.63
11672;BME280;5892;43.412;24.612;2023-04-06T04:37:08;99688.56;;;4.41;90.43
11672;BME280;5892;43.412;24.612;2023-04-06T04:39:35;99697.19;;;4.48;90.29
11672;BME280;5892;43.412;24.612;2023-04-06T04:42:02;99693.66;;;4.48;89.50
11672;BME280;5892;43.412;24.612;2023-04-06T04:44:29;99692.78;;;4.52;89.93
11672;BME280;5892;43.412;24.612;2023-04-06T04:46:56;99677.19;;;4.39;89.88
11672;BME280;5892;43.412;24.612;2023-04-06T04:49:24;99697.19;;;4.48;90.48
11672;BME280;5892;43.412;24.612;2023-04-06T04:51:51;99693.84;;;4.56;89.45
11672;BME280;5892;43.412;24.612;2023-04-06T04:54:18;99662.06;;;4.33;89.92
11672;BME280;5892;43.412;24.612;2023-04-06T04:56:45;99600.06;;;3.88;89.55
11672;BME280;5892;43.412;24.612;2023-04-06T04:59:12;99626.94;;;4.18;89.46
11672;BME280;5892;43.412;24.612;2023-04-06T05:01:40;99683.09;;;4.46;89.29
11672;BME280;5892;43.412;24.612;2023-04-06T05:04:07;99687.84;;;4.59;89.68
11672;BME280;5892;43.412;24.612;2023-04-06T05:06:35;99692.59;;;4.73;88.74
11672;BME280;5892;43.412;24.612;2023-04-06T05:09:02;99696.41;;;4.72;88.29
11672;BME280;5892;43.412;24.612;2023-04-06T05:11:29;99685.91;;;4.89;88.20
11672;BME280;5892;43.412;24.612;2023-04-06T05:13:56;99690.47;;;4.93;88.01
11672;BME280;5892;43.412;24.612;2023-04-06T05:16:23;99608.25;;;4.40;86.72
11672;BME280;5892;43.412;24.612;2023-04-06T05:18:50;99582.16;;;4.20;86.49
11672;BME280;5892;43.412;24.612;2023-04-06T05:21:18;99627.03;;;4.37;86.00
11672;BME280;5892;43.412;24.612;2023-04-06T05:23:47;99684.88;;;4.85;85.26
11672;BME280;5892;43.412;24.612;2023-04-06T05:26:14;99696.06;;;4.78;86.47
11672;BME280;5892;43.412;24.612;2023-04-06T05:28:41;99691.69;;;4.82;86.41
11672;BME280;5892;43.412;24.612;2023-04-06T05:31:09;99589.59;;;4.10;84.94
11672;BME280;5892;43.412;24.612;2023-04-06T05:33:36;99677.56;;;4.85;84.65
11672;BME280;5892;43.412;24.612;2023-04-06T05:36:04;99684.50;;;4.96;84.82
11672;BME280;5892;43.412;24.612;2023-04-06T05:38:32;99685.53;;;5.00;83.80
11672;BME280;5892;43.412;24.612;2023-04-06T05:41:01;99670.66;;;4.93;84.12
11672;BME280;5892;43.412;24.612;2023-04-06T05:43:28;99681.28;;;5.13;84.63
11672;BME280;5892;43.412;24.612;2023-04-06T05:46:01;99679.84;;;5.21;82.36
11672;BME280;5892;43.412;24.612;2023-04-06T05:48:28;99673.19;;;5.08;82.31
11672;BME280;5892;43.412;24.612;2023-04-06T05:50:56;99589.59;;;4.62;82.55
11672;BME280;5892;43.412;24.612;2023-04-06T05:53:23;99677.81;;;5.31;81.81
11672;BME280;5892;43.412;24.612;2023-04-06T05:55:51;99680.94;;;5.43;80.64
11672;BME280;5892;43.412;24.612;2023-04-06T05:58:21;99672.03;;;5.57;80.49
11672;BME280;5892;43.412;24.612;2023-04-06T06:00:48;99665.97;;;5.65;79.53
11672;BME280;5892;43.412;24.612;2023-04-06T06:03:15;99673.44;;;5.73;78.58
11672;BME280;5892;43.412;24.612;2023-04-06T06:05:42;99665.44;;;5.63;78.17
11672;BME280;5892;43.412;24.612;2023-04-06T06:08:08;99569.22;;;5.07;77.86
11672;BME280;5892;43.412;24.612;2023-04-06T06:10:36;99586.84;;;5.10;78.15
11672;BME280;5892;43.412;24.612;2023-04-06T06:13:04;99663.75;;;5.67;78.19
11672;BME280;5892;43.412;24.612;2023-04-06T06:15:33;99664.41;;;5.77;77.85
11672;BME280;5892;43.412;24.612;2023-04-06T06:18:00;99655.88;;;5.84;78.08
11672;BME280;5892;43.412;24.612;2023-04-06T06:20:27;99637.59;;;5.71;76.84
11672;BME280;5892;43.412;24.612;2023-04-06T06:22:54;99652.78;;;5.72;76.72
11672;BME280;5892;43.412;24.612;2023-04-06T06:25:21;99660.22;;;5.85;76.44
11672;BME280;5892;43.412;24.612;2023-04-06T06:27:48;99657.59;;;5.80;77.05
11672;BME280;5892;43.412;24.612;2023-04-06T06:30:15;99677.44;;;5.99;76.48
11672;BME280;5892;43.412;24.612;2023-04-06T06:32:44;99672.06;;;5.94;75.74
11672;BME280;5892;43.412;24.612;2023-04-06T06:35:11;99662.75;;;6.00;75.85
11672;BME280;5892;43.412;24.612;2023-04-06T06:37:38;99663.75;;;6.04;74.99
11672;BME280;5892;43.412;24.612;2023-04-06T06:40:06;99648.53;;;6.03;74.48
11672;BME280;5892;43.412;24.612;2023-04-06T06:42:33;99654.94;;;6.12;74.73
11672;BME280;5892;43.412;24.612;2023-04-06T06:45:00;99552.56;;;5.51;74.41
11672;BME280;5892;43.412;24.612;2023-04-06T06:47:29;99558.44;;;5.59;74.68
11672;BME280;5892;43.412;24.612;2023-04-06T06:50:00;99667.72;;;6.12;71.74
11672;BME280;5892;43.412;24.612;2023-04-06T06:52:28;99622.94;;;5.90;72.51
11672;BME280;5892;43.412;24.612;2023-04-06T06:54:55;99670.53;;;6.39;72.24
11672;BME280;5892;43.412;24.612;2023-04-06T06:57:22;99652.88;;;6.04;71.64
11672;BME280;5892;43.412;24.612;2023-04-06T06:59:49;99671.22;;;6.31;70.81
11672;BME280;5892;43.412;24.612;2023-04-06T07:02:16;99666.94;;;6.44;71.45
11672;BME280;5892;43.412;24.612;2023-04-06T07:04:43;99660.88;;;6.60;71.53
11672;BME280;5892;43.412;24.612;2023-04-06T07:07:17;99669.19;;;6.82;70.79
11672;BME280;5892;43.412;24.612;2023-04-06T07:09:45;99640.06;;;6.83;69.88
11672;BME280;5892;43.412;24.612;2023-04-06T07:12:12;99666.81;;;6.95;70.70
11672;BME280;5892;43.412;24.612;2023-04-06T07:14:39;99658.31;;;6.96;69.65
11672;BME280;5892;43.412;24.612;2023-04-06T07:17:06;99664.28;;;6.98;69.59
11672;BME280;5892;43.412;24.612;2023-04-06T07:19:33;99657.72;;;6.99;69.01
11672;BME280;5892;43.412;24.612;2023-04-06T07:22:00;99656.38;;;7.24;68.55
11672;BME280;5892;43.412;24.612;2023-04-06T07:24:29;99665.94;;;7.49;68.26
11672;BME280;5892;43.412;24.612;2023-04-06T07:26:57;99656.69;;;7.36;66.97
11672;BME280;5892;43.412;24.612;2023-04-06T07:29:24;99594.97;;;6.91;67.45
11672;BME280;5892;43.412;24.612;2023-04-06T07:31:51;99599.31;;;6.78;66.83
11672;BME280;5892;43.412;24.612;2023-04-06T07:34:18;99644.75;;;7.46;66.87
11672;BME280;5892;43.412;24.612;2023-04-06T07:36:45;99634.38;;;7.70;66.54
11672;BME280;5892;43.412;24.612;2023-04-06T07:39:12;99684.38;;;7.79;64.64
11672;BME280;5892;43.412;24.612;2023-04-06T07:41:41;99597.75;;;7.27;65.83
11672;BME280;5892;43.412;24.612;2023-04-06T07:44:08;99610.66;;;7.35;65.82
11672;BME280;5892;43.412;24.612;2023-04-06T07:46:35;99610.00;;;7.51;65.60
11672;BME280;5892;43.412;24.612;2023-04-06T07:49:02;99659.38;;;8.44;65.92
11672;BME280;5892;43.412;24.612;2023-04-06T07:51:29;99657.75;;;8.43;62.83
11672;BME280;5892;43.412;24.612;2023-04-06T07:53:56;99657.00;;;8.29;60.98
11672;BME280;5892;43.412;24.612;2023-04-06T07:56:24;99656.72;;;8.53;61.83
11672;BME280;5892;43.412;24.612;2023-04-06T07:58:52;99666.53;;;8.84;60.94
11672;BME280;5892;43.412;24.612;2023-04-06T08:01:22;99587.38;;;8.09;58.11
11672;BME280;5892;43.412;24.612;2023-04-06T08:03:49;99641.81;;;8.98;60.44
11672;BME280;5892;43.412;24.612;2023-04-06T08:06:16;99636.50;;;9.02;59.92
11672;BME280;5892;43.412;24.612;2023-04-06T08:08:43;99661.38;;;9.31;58.75
11672;BME280;5892;43.412;24.612;2023-04-06T08:11:10;99651.72;;;9.42;58.27
11672;BME280;5892;43.412;24.612;2023-04-06T08:13:37;99656.13;;;9.52;57.60
11672;BME280;5892;43.412;24.612;2023-04-06T08:16:06;99590.13;;;8.79;57.45
11672;BME280;5892;43.412;24.612;2023-04-06T08:18:33;99630.19;;;9.49;57.49
11672;BME280;5892;43.412;24.612;2023-04-06T08:21:00;99630.69;;;9.60;57.51
11672;BME280;5892;43.412;24.612;2023-04-06T08:23:27;99643.88;;;9.49;57.01
11672;BME280;5892;43.412;24.612;2023-04-06T08:25:54;99634.09;;;9.83;57.60
11672;BME280;5892;43.412;24.612;2023-04-06T08:28:21;99636.00;;;9.73;56.07
11672;BME280;5892;43.412;24.612;2023-04-06T08:30:48;99641.78;;;9.55;55.69
11672;BME280;5892;43.412;24.612;2023-04-06T08:33:17;99561.63;;;9.03;55.54
11672;BME280;5892;43.412;24.612;2023-04-06T08:35:44;99643.09;;;9.92;56.31
11672;BME280;5892;43.412;24.612;2023-04-06T08:38:11;99621.84;;;9.80;55.00
11672;BME280;5892;43.412;24.612;2023-04-06T08:40:38;99632.16;;;9.92;55.94
11672;BME280;5892;43.412;24.612;2023-04-06T08:43:08;99633.13;;;10.13;55.71
11672;BME280;5892;43.412;24.612;2023-04-06T08:45:37;99597.88;;;9.94;55.50
11672;BME280;5892;43.412;24.612;2023-04-06T08:48:05;99625.91;;;10.26;54.70
11672;BME280;5892;43.412;24.612;2023-04-06T08:50:34;99618.81;;;9.99;54.51
11672;BME280;5892;43.412;24.612;2023-04-06T08:53:01;99628.47;;;10.22;53.44
11672;BME280;5892;43.412;24.612;2023-04-06T08:55:29;99628.13;;;9.98;53.25
11672;BME280;5892;43.412;24.612;2023-04-06T08:57:56;99598.50;;;10.00;52.82
11672;BME280;5892;43.412;24.612;2023-04-06T09:00:25;99623.28;;;9.95;52.98
11672;BME280;5892;43.412;24.612;2023-04-06T09:02:54;99620.38;;;10.00;54.78
11672;BME280;5892;43.412;24.612;2023-04-06T09:05:25;99625.41;;;10.15;53.75
11672;BME280;5892;43.412;24.612;2023-04-06T09:07:54;99615.28;;;9.72;53.67
11672;BME280;5892;43.412;24.612;2023-04-06T09:10:21;99619.31;;;9.84;54.48
11672;BME280;5892;43.412;24.612;2023-04-06T09:12:49;99531.72;;;9.06;53.80
11672;BME280;5892;43.412;24.612;2023-04-06T09:15:20;99619.31;;;9.84;54.64
11672;BME280;5892;43.412;24.612;2023-04-06T09:17:48;99601.56;;;9.55;53.60
11672;BME280;5892;43.412;24.612;2023-04-06T09:20:22;99545.41;;;9.23;53.88
11672;BME280;5892;43.412;24.612;2023-04-06T09:22:51;99605.94;;;9.56;53.12
11672;BME280;5892;43.412;24.612;2023-04-06T09:25:20;99553.13;;;9.30;53.29
11672;BME280;5892;43.412;24.612;2023-04-06T09:27:48;99598.38;;;9.62;52.97
11672;BME280;5892;43.412;24.612;2023-04-06T09:30:16;99610.59;;;9.82;52.68
11672;BME280;5892;43.412;24.612;2023-04-06T09:32:45;99567.47;;;9.44;52.78
11672;BME280;5892;43.412;24.612;2023-04-06T09:35:13;99586.13;;;9.94;53.56
11672;BME280;5892;43.412;24.612;2023-04-06T09:37:42;99567.47;;;9.78;51.85
11672;BME280;5892;43.412;24.612;2023-04-06T09:40:10;99502.81;;;9.57;51.10
11672;BME280;5892;43.412;24.612;2023-04-06T09:42:41;99560.34;;;9.95;50.78
11672;BME280;5892;43.412;24.612;2023-04-06T09:45:08;99587.06;;;10.24;50.75
11672;BME280;5892;43.412;24.612;2023-04-06T09:47:36;99499.22;;;9.82;50.60
11672;BME280;5892;43.412;24.612;2023-04-06T09:50:07;99589.00;;;10.23;50.54
11672;BME280;5892;43.412;24.612;2023-04-06T09:52:40;99566.38;;;10.43;50.02
11672;BME280;5892;43.412;24.612;2023-04-06T09:55:08;99590.84;;;10.57;48.59
11672;BME280;5892;43.412;24.612;2023-04-06T09:57:40;99598.47;;;10.81;49.62
11672;BME280;5892;43.412;24.612;2023-04-06T10:00:11;99557.44;;;10.63;49.57
11672;BME280;5892;43.412;24.612;2023-04-06T10:02:49;99582.03;;;10.81;48.53
11672;BME280;5892;43.412;24.612;2023-04-06T10:05:22;99539.25;;;10.68;48.72
11672;BME280;5892;43.412;24.612;2023-04-06T10:07:50;99477.66;;;10.36;48.92
11672;BME280;5892;43.412;24.612;2023-04-06T10:10:21;99573.38;;;10.99;47.82
11672;BME280;5892;43.412;24.612;2023-04-06T10:14:39;99587.94;;;11.21;47.38
11672;BME280;5892;43.412;24.612;2023-04-06T10:15:57;99582.66;;;11.16;47.20
11672;BME280;5892;43.412;24.612;2023-04-06T10:18:27;99559.47;;;11.13;48.62
11672;BME280;5892;43.412;24.612;2023-04-06T10:20:56;99588.84;;;11.33;47.77
11672;BME280;5892;43.412;24.612;2023-04-06T10:23:30;99583.25;;;11.51;48.11
11672;BME280;5892;43.412;24.612;2023-04-06T10:25:59;99579.09;;;11.44;47.38
11672;BME280;5892;43.412;24.612;2023-04-06T10:28:30;99527.88;;;11.07;46.83
11672;BME280;5892;43.412;24.612;2023-04-06T10:31:00;99572.81;;;11.44;47.33
11672;BME280;5892;43.412;24.612;2023-04-06T10:33:28;99571.31;;;11.46;47.22
11672;BME280;5892;43.412;24.612;2023-04-06T10:35:55;99573.31;;;11.58;47.11
11672;BME280;5892;43.412;24.612;2023-04-06T10:38:33;99562.38;;;11.79;47.38
11672;BME280;5892;43.412;24.612;2023-04-06T10:41:03;99548.84;;;11.74;46.56
11672;BME280;5892;43.412;24.612;2023-04-06T10:43:33;99562.97;;;11.64;46.46
11672;BME280;5892;43.412;24.612;2023-04-06T10:46:04;99577.41;;;11.94;45.84
11672;BME280;5892;43.412;24.612;2023-04-06T10:48:38;99546.25;;;12.10;45.87
11672;BME280;5892;43.412;24.612;2023-04-06T10:51:08;99547.16;;;12.02;46.13
11672;BME280;5892;43.412;24.612;2023-04-06T10:53:36;99549.78;;;11.78;46.49
11672;BME280;5892;43.412;24.612;2023-04-06T10:56:14;99552.53;;;12.11;46.32
11672;BME280;5892;43.412;24.612;2023-04-06T10:58:45;99555.78;;;12.25;45.46
11672;BME280;5892;43.412;24.612;2023-04-06T11:01:14;99544.72;;;12.34;45.71
11672;BME280;5892;43.412;24.612;2023-04-06T11:03:45;99545.38;;;12.18;44.87
11672;BME280;5892;43.412;24.612;2023-04-06T11:06:18;99533.97;;;12.53;45.12
11672;BME280;5892;43.412;24.612;2023-04-06T11:08:45;99518.88;;;12.59;44.71
11672;BME280;5892;43.412;24.612;2023-04-06T11:11:14;99499.16;;;12.69;43.75
11672;BME280;5892;43.412;24.612;2023-04-06T11:13:44;99448.44;;;12.18;44.11
11672;BME280;5892;43.412;24.612;2023-04-06T11:16:17;99520.00;;;12.94;44.19
11672;BME280;5892;43.412;24.612;2023-04-06T11:22:07;99509.81;;;12.95;43.92
11672;BME280;5892;43.412;24.612;2023-04-06T11:24:34;99522.41;;;13.08;43.24
11672;BME280;5892;43.412;24.612;2023-04-06T11:27:01;99468.94;;;12.81;43.43
11672;BME280;5892;43.412;24.612;2023-04-06T11:29:42;99502.78;;;13.09;43.76
11672;BME280;5892;43.412;24.612;2023-04-06T11:32:10;99504.88;;;13.12;43.09
11672;BME280;5892;43.412;24.612;2023-04-06T11:34:41;99466.03;;;12.78;42.06
11672;BME280;5892;43.412;24.612;2023-04-06T11:37:11;99504.88;;;12.88;42.10
11672;BME280;5892;43.412;24.612;2023-04-06T11:39:40;99442.59;;;12.31;42.25
11672;BME280;5892;43.412;24.612;2023-04-06T11:42:07;99506.72;;;12.72;42.14
11672;BME280;5892;43.412;24.612;2023-04-06T11:44:36;99495.69;;;13.21;41.96
11672;BME280;5892;43.412;24.612;2023-04-06T11:47:05;99529.03;;;13.07;41.58
11672;BME280;5892;43.412;24.612;2023-04-06T11:49:41;99507.03;;;13.07;41.19
11672;BME280;5892;43.412;24.612;2023-04-06T11:52:15;99505.88;;;13.32;41.92
11672;BME280;5892;43.412;24.612;2023-04-06T11:54:42;99487.97;;;13.38;41.10
11672;BME280;5892;43.412;24.612;2023-04-06T11:57:09;99448.50;;;12.94;40.14
11672;BME280;5892;43.412;24.612;2023-04-06T11:59:36;99490.44;;;13.15;41.52
11672;BME280;5892;43.412;24.612;2023-04-06T12:02:04;99447.16;;;12.52;40.87
11672;BME280;5892;43.412;24.612;2023-04-06T12:04:32;99503.97;;;12.60;40.85
11672;BME280;5892;43.412;24.612;2023-04-06T12:07:00;99460.19;;;12.06;41.44
11672;BME280;5892;43.412;24.612;2023-04-06T12:09:27;99497.47;;;12.77;42.69
11672;BME280;5892;43.412;24.612;2023-04-06T12:11:54;99426.22;;;12.47;41.48
11672;BME280;5892;43.412;24.612;2023-04-06T12:14:21;99502.38;;;12.71;40.19
11672;BME280;5892;43.412;24.612;2023-04-06T12:16:48;99494.56;;;12.85;40.95
11672;BME280;5892;43.412;24.612;2023-04-06T12:19:18;99375.53;;;11.96;39.91
11672;BME280;5892;43.412;24.612;2023-04-06T12:21:51;99483.13;;;12.83;41.24
11672;BME280;5892;43.412;24.612;2023-04-06T12:24:19;99465.59;;;12.51;40.53
11672;BME280;5892;43.412;24.612;2023-04-06T12:26:46;99490.22;;;12.72;40.41
11672;BME280;5892;43.412;24.612;2023-04-06T12:29:13;99422.91;;;12.42;39.88
11672;BME280;5892;43.412;24.612;2023-04-06T12:31:40;99482.97;;;13.16;40.48
11672;BME280;5892;43.412;24.612;2023-04-06T12:34:09;99490.00;;;13.13;39.21
11672;BME280;5892;43.412;24.612;2023-04-06T12:36:37;99484.91;;;13.28;40.12
11672;BME280;5892;43.412;24.612;2023-04-06T12:39:04;99491.22;;;13.28;39.02
11672;BME280;5892;43.412;24.612;2023-04-06T12:41:33;99480.34;;;13.07;38.53
11672;BME280;5892;43.412;24.612;2023-04-06T12:44:00;99493.53;;;12.90;39.12
11672;BME280;5892;43.412;24.612;2023-04-06T12:46:27;99482.66;;;12.81;37.89
11672;BME280;5892;43.412;24.612;2023-04-06T12:48:56;99487.03;;;12.82;38.37
11672;BME280;5892;43.412;24.612;2023-04-06T12:51:24;99485.75;;;12.80;38.54
11672;BME280;5892;43.412;24.612;2023-04-06T12:53:52;99477.63;;;12.59;38.21
11672;BME280;5892;43.412;24.612;2023-04-06T12:56:19;99418.09;;;12.14;38.73
11672;BME280;5892;43.412;24.612;2023-04-06T12:58:50;99483.47;;;12.33;38.67
11672;BME280;5892;43.412;24.612;2023-04-06T13:01:18;99478.94;;;12.04;38.48
11672;BME280;5892;43.412;24.612;2023-04-06T13:03:45;99385.72;;;11.51;40.18
11672;BME280;5892;43.412;24.612;2023-04-06T13:06:12;99480.38;;;12.35;39.32
11672;BME280;5892;43.412;24.612;2023-04-06T13:08:40;99466.88;;;12.29;38.84
11672;BME280;5892;43.412;24.612;2023-04-06T13:11:07;99466.28;;;12.36;39.11
11672;BME280;5892;43.412;24.612;2023-04-06T13:13:35;99475.59;;;12.56;39.06
11672;BME280;5892;43.412;24.612;2023-04-06T13:16:05;99481.84;;;12.56;38.85
11672;BME280;5892;43.412;24.612;2023-04-06T13:18:33;99478.88;;;12.37;37.64